Latest Coastal Weather Observations for Portland Harbour

IDS60701

Issued at 3:31 am CST Wednesday 27 July 2016 (issued every 10 minutes, with the page automatically refreshed every 10 minutes)

About coastal observations | Map of coastal stations | Coastal observations for SA | Marine services | Other Formats
Station Details ID: 090192 Name: PORTLAND NTC AWS Lat: -38.34 Lon: 141.61 Height: 0.0 m
Data from the previous 72 hours. | See also: Recent months for locations in South Australia
Date/Time
CST
Temp
°C
Wind Pressure Rain since
9am
mm
Weather Cloud Vis
km
Sea
Height
m
Swell
Dir  Spd
kts
Gust
kts
hPa Trend Height
m
Period
s
Dir
27/03:30am 10.3 SSW 24 34 1008.0 - - - - - - - - -
27/03:01am 10.7 SSW 20 31 1007.0 - - - - - - - - -
27/03:00am 10.7 SW 20 29 1007.0 - - - - - - - - -
27/02:57am 10.8 SW 17 27 1007.0 - - - - - - - - -
27/02:30am 11.0 SW 15 22 1006.2 - - - - - - - - -
27/02:00am 10.9 SW 13 22 1005.5 - - - - - - - - -
27/01:30am 11.7 WSW 10 15 1004.6 - - - - - - - - -
27/01:00am 11.2 WSW 9 16 1004.3 - - - - - - - - -
27/12:30am 9.6 NW 8 15 1003.8 - - - - - - - - -
27/12:00am 9.2 NW 7 10 1003.4 - - - - - - - - -
 
Date/Time
CST
Temp
°C
Wind Pressure Rain since
9am
mm
Weather Cloud Vis
km
Sea
Height
m
Swell
Dir  Spd
kts
Gust
kts
hPa Trend Height
m
Period
s
Dir
26/11:30pm 8.8 NW 6 9 1003.2 - - - - - - - - -
26/11:00pm 8.8 NW 8 12 1003.0 - - - - - - - - -
26/10:30pm 8.8 NNW 11 15 1002.4 - - - - - - - - -
26/10:00pm 9.1 NNW 13 17 1002.1 - - - - - - - - -
26/09:30pm 9.3 NNW 12 17 1002.0 - - - - - - - - -
26/09:00pm 9.5 NNW 14 19 1001.9 - - - - - - - - -
26/08:30pm 9.5 NNW 16 21 1001.8 - - - - - - - - -
26/08:00pm 9.7 NNW 18 25 1001.8 - - - - - - - - -
26/07:30pm 9.6 NNW 15 22 1002.0 - - - - - - - - -
26/07:00pm 9.7 NNW 17 24 1002.0 - - - - - - - - -
26/06:30pm 9.4 N 16 19 1002.2 - - - - - - - - -
26/06:00pm 9.1 N 15 19 1002.7 - - - - - - - - -
26/05:30pm 8.9 NNW 18 23 1003.2 - - - - - - - - -
26/05:00pm 8.8 NNW 13 17 1003.3 - - - - - - - - -
26/04:30pm 9.3 NNW 17 22 1003.6 - - - - - - - - -
26/04:00pm 9.6 NNW 17 23 1004.1 - - - - - - - - -
26/03:30pm 10.0 NNW 15 21 1004.5 - - - - - - - - -
26/03:00pm 9.8 NNW 18 28 1004.8 - - - - - - - - -
26/02:58pm 10.0 NNW 18 28 1004.8 - - - - - - - - -
26/02:30pm 9.6 NNW 19 25 1005.3 - - - - - - - - -
26/02:00pm 9.2 NNW 17 22 1005.8 - - - - - - - - -
26/01:30pm 8.6 NNW 15 23 1006.4 - - - - - - - - -
26/01:00pm 9.2 NNW 14 21 1007.3 - - - - - - - - -
26/12:30pm 9.2 NNW 11 15 1007.6 - - - - - - - - -
26/12:00pm 8.4 NNW 13 19 1008.5 - - - - - - - - -
26/11:30am 8.9 NNW 17 22 1008.8 - - - - - - - - -
26/11:00am 8.7 NNW 14 20 1009.3 - - - - - - - - -
26/10:30am 8.4 NNW 12 16 1009.4 - - - - - - - - -
26/10:00am 7.4 NNW 12 15 1009.8 - - - - - - - - -
26/09:30am 7.4 NNW 14 21 1009.9 - - - - - - - - -
26/09:00am 7.2 NNW 13 17 1010.0 - - - - - - - - -
26/08:30am 8.6 NW 9 14 1009.8 - - - - - - - - -
26/08:00am 7.6 NNW 12 17 1009.6 - - - - - - - - -
26/07:30am 7.7 NNW 6 10 1009.5 - - - - - - - - -
26/07:00am 9.0 WNW 4 7 1009.7 - - - - - - - - -
26/06:30am 8.6 NNW 4 7 1009.4 - - - - - - - - -
26/06:00am 8.3 NW 6 8 1009.3 - - - - - - - - -
26/05:30am 8.1 NW 7 11 1009.0 - - - - - - - - -
26/05:00am 8.3 W 13 20 1009.0 - - - - - - - - -
26/04:30am 8.6 SW 15 22 1008.9 - - - - - - - - -
26/04:00am 9.7 WSW 13 21 1008.8 - - - - - - - - -
26/03:36am 9.9 WSW 16 26 1008.8 - - - - - - - - -
26/03:30am 9.7 WSW 13 21 1008.8 - - - - - - - - -
26/03:00am 9.4 WSW 17 29 1008.6 - - - - - - - - -
26/02:30am 8.5 WSW 16 27 1008.7 - - - - - - - - -
26/02:10am 8.8 W 15 26 1008.4 - - - - - - - - -
26/02:00am 9.1 W 13 21 1008.4 - - - - - - - - -
26/01:30am 8.5 WSW 16 27 1008.4 - - - - - - - - -
26/01:17am 9.2 WSW 18 37 1008.4 - - - - - - - - -
26/01:00am 9.1 W 17 26 1007.9 - - - - - - - - -
26/12:46am 10.1 W 15 30 1007.9 - - - - - - - - -
26/12:30am 9.8 W 16 24 1007.6 - - - - - - - - -
26/12:10am 9.8 WSW 17 27 1007.3 - - - - - - - - -
26/12:00am 9.7 WSW 15 24 1007.5 - - - - - - - - -
 
Date/Time
CST
Temp
°C
Wind Pressure Rain since
9am
mm
Weather Cloud Vis
km
Sea
Height
m
Swell
Dir  Spd
kts
Gust
kts
hPa Trend Height
m
Period
s
Dir
25/11:30pm 9.7 WSW 17 28 1007.5 - - - - - - - - -
25/11:10pm 9.0 W 15 28 1007.2 - - - - - - - - -
25/11:00pm 8.8 W 16 23 1007.1 - - - - - - - - -
25/10:46pm 8.7 W 17 27 1006.9 - - - - - - - - -
25/10:30pm 8.2 WSW 23 35 1007.2 - - - - - - - - -
25/10:00pm 8.9 WSW 18 28 1006.7 - - - - - - - - -
25/09:30pm 8.5 SW 19 31 1006.5 - - - - - - - - -
25/09:27pm 8.8 SW 18 31 1006.7 - - - - - - - - -
25/09:00pm 9.3 W 15 25 1005.9 - - - - - - - - -
25/08:30pm 9.6 WSW 20 31 1005.9 - - - - - - - - -
25/08:00pm 8.2 W 21 33 1005.6 - - - - - - - - -
25/07:30pm 8.9 WSW 22 39 1005.4 - - - - - - - - -
25/07:29pm 10.0 WSW 21 38 1005.2 - - - - - - - - -
25/07:01pm 10.3 WSW 15 26 1004.4 - - - - - - - - -
25/07:00pm 10.3 WSW 14 26 1004.4 - - - - - - - - -
25/06:36pm 9.7 W 18 31 1003.8 - - - - - - - - -
25/06:30pm 10.1 W 17 26 1003.8 - - - - - - - - -
25/06:00pm 9.7 WSW 20 45 1003.5 - - - - - - - - -
25/05:30pm 9.8 W 22 35 1002.6 - - - - - - - - -
25/05:00pm 9.1 W 15 27 1002.4 - - - - - - - - -
25/04:30pm 10.6 W 22 35 1001.5 - - - - - - - - -
25/04:00pm 11.1 W 24 43 1001.0 - - - - - - - - -
25/03:30pm 11.4 W 23 34 1000.0 - - - - - - - - -
25/03:19pm 11.2 WNW 20 36 999.9 - - - - - - - - -
25/03:01pm 10.2 W 16 26 1000.2 - - - - - - - - -
25/03:00pm 10.1 W 17 26 1000.3 - - - - - - - - -
25/02:42pm 9.8 W 18 34 1000.7 - - - - - - - - -
25/02:30pm 10.5 WNW 16 24 1000.0 - - - - - - - - -
25/02:00pm 8.9 WNW 24 38 1000.2 - - - - - - - - -
25/01:47pm 10.4 NW 19 32 1000.9 - - - - - - - - -
25/01:31pm 11.0 NNW 19 29 999.2 - - - - - - - - -
25/01:30pm 11.1 NNW 19 26 999.3 - - - - - - - - -
25/01:00pm 11.6 NNW 20 29 999.9 - - - - - - - - -
25/12:34pm 11.8 NNW 21 32 1000.7 - - - - - - - - -
25/12:30pm 11.9 NNW 22 32 1000.9 - - - - - - - - -
25/12:01pm 12.4 NNW 20 31 1001.9 - - - - - - - - -
25/12:00pm 12.4 NNW 20 30 1002.0 - - - - - - - - -
25/11:55am 12.5 NNW 19 30 1002.1 - - - - - - - - -
25/11:30am 12.3 NNW 19 27 1003.2 - - - - - - - - -
25/11:00am 12.1 NNW 18 28 1004.0 - - - - - - - - -
25/10:30am 11.7 NW 14 22 1004.9 - - - - - - - - -
25/10:00am 11.1 NNW 13 18 1005.4 - - - - - - - - -
25/09:30am 9.9 NNW 12 16 1005.9 - - - - - - - - -
25/09:00am 9.5 NNW 12 17 1006.3 - - - - - - - - -
25/08:30am 9.8 NNW 9 14 1006.7 - - - - - - - - -
25/08:00am 10.1 NW 8 13 1007.0 - - - - - - - - -
25/07:30am 10.4 WNW 7 11 1007.2 - - - - - - - - -
25/07:00am 10.7 W 9 15 1007.2 - - - - - - - - -
25/06:30am 10.4 W 8 11 1007.1 - - - - - - - - -
25/06:00am 10.5 W 12 17 1006.9 - - - - - - - - -
25/05:30am 11.0 W 10 17 1006.5 - - - - - - - - -
25/05:00am 10.7 SW 14 20 1006.3 - - - - - - - - -
25/04:30am 10.4 WSW 17 27 1005.8 - - - - - - - - -
25/04:21am 10.5 SW 15 27 1005.9 - - - - - - - - -
25/04:00am 10.5 WSW 13 22 1005.4 - - - - - - - - -
25/03:39am 10.7 WSW 16 27 1005.2 - - - - - - - - -
25/03:30am 11.3 WSW 16 24 1005.0 - - - - - - - - -
25/03:02am 11.6 WSW 15 25 1004.6 - - - - - - - - -
25/03:00am 11.5 WSW 14 24 1004.6 - - - - - - - - -
25/02:30am 11.1 WSW 14 23 1004.3 - - - - - - - - -
25/02:12am 10.9 WSW 15 26 1004.3 - - - - - - - - -
25/02:00am 10.2 W 11 15 1004.2 - - - - - - - - -
25/01:30am 10.6 W 10 17 1003.8 - - - - - - - - -
25/01:00am 9.0 NW 9 13 1003.6 - - - - - - - - -
25/12:30am 9.1 NNW 10 15 1003.3 - - - - - - - - -
25/12:00am 9.1 NW 9 14 1003.3 - - - - - - - - -
 
Date/Time
CST
Temp
°C
Wind Pressure Rain since
9am
mm
Weather Cloud Vis
km
Sea
Height
m
Swell
Dir  Spd
kts
Gust
kts
hPa Trend Height
m
Period
s
Dir
24/11:30pm 8.4 NW 10 15 1003.2 - - - - - - - - -
24/11:00pm 8.4 NW 9 14 1002.9 - - - - - - - - -
24/10:30pm 8.4 NW 9 14 1002.6 - - - - - - - - -
24/10:00pm 8.1 NNW 16 24 1002.2 - - - - - - - - -
24/09:30pm 8.2 NW 14 21 1002.1 - - - - - - - - -
24/09:00pm 8.3 NNW 14 22 1001.7 - - - - - - - - -
24/08:30pm 8.3 NNW 13 18 1001.7 - - - - - - - - -
24/08:00pm 8.7 NNW 15 20 1001.0 - - - - - - - - -
24/07:30pm 8.7 NNW 14 20 1001.2 - - - - - - - - -
24/07:00pm 9.0 NNW 13 19 1000.8 - - - - - - - - -
24/06:30pm 8.7 NNW 14 19 1000.5 - - - - - - - - -
24/06:00pm 8.8 NNW 11 18 1000.1 - - - - - - - - -
24/05:30pm 9.0 NNW 14 19 999.7 - - - - - - - - -
24/05:00pm 9.1 NNW 16 23 999.5 - - - - - - - - -
24/04:30pm 9.3 NNW 17 23 999.6 - - - - - - - - -
24/04:00pm 9.7 NNW 17 24 999.6 - - - - - - - - -
24/03:42pm 9.7 NNW 17 28 999.5 - - - - - - - - -
24/03:30pm 10.0 NNW 18 24 999.5 - - - - - - - - -
24/03:00pm 10.3 NNW 21 33 999.5 - - - - - - - - -
24/02:48pm 10.5 N 20 31 999.6 - - - - - - - - -
24/02:30pm 10.3 N 18 22 999.6 - - - - - - - - -
24/02:00pm 9.9 N 16 20 1000.3 - - - - - - - - -
24/01:30pm 9.9 N 19 27 1001.1 - - - - - - - - -
24/01:00pm 9.8 N 24 30 1001.5 - - - - - - - - -
24/12:30pm 10.2 N 24 32 1002.4 - - - - - - - - -
24/12:00pm 9.9 N 22 30 1002.9 - - - - - - - - -
24/11:30am 10.2 N 20 29 1003.5 - - - - - - - - -
24/11:00am 9.8 N 19 24 1004.3 - - - - - - - - -
24/10:30am 9.3 NNW 21 29 1005.0 - - - - - - - - -
24/10:00am 8.8 N 17 22 1005.5 - - - - - - - - -
24/09:30am 8.6 N 16 23 1005.8 - - - - - - - - -
24/09:00am 7.8 NNW 16 22 1006.1 - - - - - - - - -
24/08:30am 7.3 NNW 14 19 1006.4 - - - - - - - - -
24/08:00am 7.0 NNW 14 17 1006.8 - - - - - - - - -
24/07:30am 6.6 NNW 13 18 1007.0 - - - - - - - - -
24/07:00am 6.4 NNW 13 17 1007.1 - - - - - - - - -
24/06:30am 6.4 NNW 12 17 1007.1 - - - - - - - - -
24/06:00am 6.5 NNW 12 15 1007.3 - - - - - - - - -
24/05:30am 6.5 NNW 12 15 1007.5 - - - - - - - - -
24/05:00am 6.5 NNW 12 16 1007.7 - - - - - - - - -
24/04:30am 6.4 NNW 12 15 1008.1 - - - - - - - - -
24/04:00am 6.6 NNW 10 13 1008.5 - - - - - - - - -
24/03:30am 6.6 NNW 11 16 1008.8 - - - - - - - - -

Other Formats:

Comma delimited format used in spreadsheet applications
http://www.bom.gov.au/fwo/IDS60701/IDS60701.95826.axf

JavaScript Object Notation format (JSON) in row-major order
http://www.bom.gov.au/fwo/IDS60701/IDS60701.95826.json